createdAt,value
2022-12-01T00:01:19.689Z,97.52
2022-12-01T00:03:46.800Z,96.15
2022-12-01T00:06:16.417Z,96.55
2022-12-01T00:09:03.152Z,97.82
2022-12-01T00:11:30.248Z,97.82
2022-12-01T00:13:57.357Z,97.84
2022-12-01T00:16:27.264Z,98.88
2022-12-01T00:18:54.082Z,98.98
2022-12-01T00:21:22.988Z,100.00
2022-12-01T00:23:52.574Z,100.00
2022-12-01T00:26:20.962Z,100.00
2022-12-01T00:28:53.347Z,100.00
2022-12-01T00:31:20.977Z,100.00
2022-12-01T00:33:47.748Z,100.00
2022-12-01T00:36:15.215Z,100.00
2022-12-01T00:38:42.006Z,100.00
2022-12-01T00:41:09.073Z,100.00
2022-12-01T00:43:36.076Z,100.00
2022-12-01T00:46:03.632Z,100.00
2022-12-01T00:48:30.762Z,100.00
2022-12-01T00:50:57.802Z,100.00
2022-12-01T00:53:24.811Z,100.00
2022-12-01T00:55:54.073Z,100.00
2022-12-01T00:58:21.450Z,100.00
2022-12-01T01:00:48.567Z,100.00
2022-12-01T01:03:15.521Z,100.00
2022-12-01T01:05:43.736Z,100.00
2022-12-01T01:08:12.826Z,100.00
2022-12-01T01:10:42.054Z,100.00
2022-12-01T01:13:09.758Z,100.00
2022-12-01T01:15:37.472Z,100.00
2022-12-01T01:18:05.008Z,100.00
2022-12-01T01:20:33.121Z,100.00
2022-12-01T01:22:59.830Z,100.00
2022-12-01T01:25:27.013Z,100.00
2022-12-01T01:27:54.186Z,100.00
2022-12-01T01:30:21.710Z,100.00
2022-12-01T01:32:48.587Z,100.00
2022-12-01T01:35:15.695Z,100.00
2022-12-01T01:37:42.471Z,100.00
2022-12-01T01:40:11.563Z,100.00
2022-12-01T01:42:43.068Z,100.00
2022-12-01T01:45:19.410Z,99.61
2022-12-01T01:47:47.182Z,99.65
2022-12-01T01:50:16.535Z,100.00
2022-12-01T01:52:46.525Z,100.00
2022-12-01T01:55:14.677Z,99.74
2022-12-01T01:57:43.705Z,99.86
2022-12-01T02:00:17.060Z,100.00
2022-12-01T02:02:46.480Z,100.00
2022-12-01T02:05:22.651Z,100.00
2022-12-01T02:07:51.830Z,100.00
2022-12-01T02:10:22.692Z,100.00
2022-12-01T02:13:17.730Z,100.00
2022-12-01T02:16:09.745Z,100.00
2022-12-01T02:18:42.515Z,100.00
2022-12-01T02:21:24.662Z,100.00
2022-12-01T02:24:06.566Z,100.00
2022-12-01T02:26:46.781Z,100.00
2022-12-01T02:29:58.448Z,100.00
2022-12-01T02:32:47.362Z,100.00
2022-12-01T02:35:34.395Z,100.00
2022-12-01T02:38:10.549Z,100.00
2022-12-01T02:40:53.053Z,100.00
2022-12-01T02:43:43.051Z,100.00
2022-12-01T02:46:27.127Z,100.00
2022-12-01T02:48:59.809Z,100.00
2022-12-01T02:51:30.650Z,100.00
2022-12-01T02:54:02.937Z,100.00
2022-12-01T02:56:29.898Z,100.00
2022-12-01T02:58:57.189Z,100.00
2022-12-01T03:01:45.051Z,100.00
2022-12-01T03:04:47.579Z,100.00
2022-12-01T03:07:39.028Z,100.00
2022-12-01T03:10:15.113Z,100.00
2022-12-01T03:13:16.310Z,100.00
2022-12-01T03:16:01.016Z,100.00
2022-12-01T03:18:38.926Z,100.00
2022-12-01T03:21:14.054Z,100.00
2022-12-01T03:23:47.847Z,100.00
2022-12-01T03:26:21.870Z,100.00
2022-12-01T03:29:00.347Z,100.00
2022-12-01T03:31:33.005Z,100.00
2022-12-01T03:34:09.745Z,100.00
2022-12-01T03:36:45.447Z,100.00
2022-12-01T03:39:17.127Z,100.00
2022-12-01T03:41:51.457Z,100.00
2022-12-01T03:44:25.565Z,100.00
2022-12-01T03:47:10.817Z,100.00
2022-12-01T03:49:39.414Z,100.00
2022-12-01T03:52:24.726Z,100.00
2022-12-01T03:55:01.267Z,100.00
2022-12-01T03:58:01.691Z,100.00
2022-12-01T04:00:31.229Z,100.00
2022-12-01T04:03:00.472Z,100.00
2022-12-01T04:05:27.598Z,100.00
2022-12-01T04:07:55.023Z,100.00
2022-12-01T04:10:22.086Z,100.00
2022-12-01T04:12:49.138Z,100.00
2022-12-01T04:15:16.706Z,100.00
2022-12-01T04:17:45.309Z,100.00
2022-12-01T04:20:16.463Z,100.00
2022-12-01T04:22:43.859Z,100.00
2022-12-01T04:25:11.315Z,100.00
2022-12-01T04:27:38.757Z,100.00
2022-12-01T04:30:07.250Z,100.00
2022-12-01T04:32:42.658Z,100.00
2022-12-01T04:35:11.724Z,100.00
2022-12-01T04:37:39.947Z,100.00
2022-12-01T04:40:07.682Z,100.00
2022-12-01T04:42:34.846Z,100.00
2022-12-01T04:45:01.735Z,100.00
2022-12-01T04:47:28.856Z,100.00
2022-12-01T04:49:55.594Z,100.00
2022-12-01T04:52:22.727Z,100.00
2022-12-01T04:54:49.446Z,100.00
2022-12-01T04:57:16.464Z,100.00
2022-12-01T04:59:43.178Z,100.00
2022-12-01T05:02:10.260Z,100.00
2022-12-01T05:04:38.810Z,100.00
2022-12-01T05:07:09.113Z,100.00
2022-12-01T05:09:36.025Z,100.00
2022-12-01T05:12:03.095Z,100.00
2022-12-01T05:14:29.859Z,100.00
2022-12-01T05:17:01.019Z,100.00
2022-12-01T05:19:46.454Z,100.00
2022-12-01T05:22:13.745Z,100.00
2022-12-01T05:24:40.904Z,100.00
2022-12-01T05:27:08.984Z,100.00
2022-12-01T05:29:35.939Z,100.00
2022-12-01T05:32:03.816Z,100.00
2022-12-01T05:34:30.778Z,100.00
2022-12-01T05:36:57.833Z,100.00
2022-12-01T05:39:24.567Z,100.00
2022-12-01T05:41:54.436Z,100.00
2022-12-01T05:44:21.230Z,100.00
2022-12-01T05:46:48.263Z,100.00
2022-12-01T05:49:15.150Z,100.00
2022-12-01T05:51:44.780Z,100.00
2022-12-01T05:54:11.530Z,100.00
2022-12-01T05:56:38.574Z,100.00
2022-12-01T05:59:05.398Z,100.00
2022-12-01T06:01:32.512Z,100.00
2022-12-01T06:03:59.432Z,100.00
2022-12-01T06:06:26.515Z,100.00
2022-12-01T06:08:53.339Z,100.00
2022-12-01T06:11:20.374Z,100.00
2022-12-01T06:13:47.103Z,100.00
2022-12-01T06:16:14.258Z,100.00
2022-12-01T06:18:41.132Z,100.00
2022-12-01T06:21:11.040Z,100.00
2022-12-01T06:23:37.984Z,100.00
2022-12-01T06:26:05.375Z,100.00
2022-12-01T06:28:32.221Z,100.00
2022-12-01T06:31:03.138Z,100.00
2022-12-01T06:33:31.906Z,100.00
2022-12-01T06:36:00.963Z,100.00
2022-12-01T06:38:31.426Z,100.00
2022-12-01T06:40:58.920Z,100.00
2022-12-01T06:43:26.034Z,100.00
2022-12-01T06:45:57.781Z,100.00
2022-12-01T06:48:27.828Z,100.00
2022-12-01T06:50:57.979Z,100.00
2022-12-01T06:53:25.867Z,100.00
2022-12-01T06:55:53.445Z,100.00
2022-12-01T06:58:20.364Z,100.00
2022-12-01T07:00:51.910Z,100.00
2022-12-01T07:03:19.127Z,100.00
2022-12-01T07:05:55.296Z,100.00
2022-12-01T07:08:22.044Z,100.00
2022-12-01T07:11:00.036Z,100.00
2022-12-01T07:13:33.380Z,100.00
2022-12-01T07:16:03.341Z,100.00
2022-12-01T07:18:30.838Z,100.00
2022-12-01T07:21:01.887Z,100.00
2022-12-01T07:23:29.131Z,100.00
2022-12-01T07:26:07.030Z,100.00
2022-12-01T07:28:34.247Z,100.00
2022-12-01T07:31:06.100Z,100.00
2022-12-01T07:33:32.946Z,100.00
2022-12-01T07:36:00.345Z,100.00
2022-12-01T07:38:31.776Z,100.00
2022-12-01T07:41:16.396Z,100.00
2022-12-01T07:43:43.511Z,100.00
2022-12-01T07:46:23.047Z,100.00
2022-12-01T07:48:51.039Z,100.00
2022-12-01T07:51:18.337Z,100.00
2022-12-01T07:53:47.270Z,100.00
2022-12-01T07:56:14.935Z,100.00
2022-12-01T07:58:42.654Z,100.00
2022-12-01T08:01:12.550Z,100.00
2022-12-01T08:03:40.110Z,100.00
2022-12-01T08:06:08.401Z,100.00
2022-12-01T08:08:39.077Z,100.00
2022-12-01T08:11:14.907Z,100.00
2022-12-01T08:13:42.670Z,100.00
2022-12-01T08:16:14.842Z,100.00
2022-12-01T08:18:42.671Z,100.00
2022-12-01T08:21:14.446Z,100.00
2022-12-01T08:23:42.272Z,100.00
2022-12-01T08:26:13.146Z,100.00
2022-12-01T08:28:40.465Z,100.00
2022-12-01T08:31:09.957Z,100.00
2022-12-01T08:33:36.867Z,100.00
2022-12-01T08:36:05.359Z,100.00
2022-12-01T08:38:32.576Z,100.00
2022-12-01T08:41:04.999Z,100.00
2022-12-01T08:43:56.570Z,100.00
2022-12-01T08:46:18.881Z,100.00
2022-12-01T08:48:46.062Z,100.00
2022-12-01T08:51:15.770Z,100.00
2022-12-01T08:53:45.857Z,100.00
2022-12-01T08:56:24.496Z,100.00
2022-12-01T08:58:51.799Z,100.00
2022-12-01T09:01:19.670Z,100.00
2022-12-01T09:03:46.641Z,100.00
2022-12-01T09:06:17.056Z,100.00
2022-12-01T09:08:44.459Z,100.00
2022-12-01T09:11:17.428Z,100.00
2022-12-01T09:13:48.593Z,99.08
2022-12-01T09:16:19.408Z,99.71
2022-12-01T09:18:47.602Z,97.39
2022-12-01T09:21:30.393Z,94.48
2022-12-01T09:23:57.658Z,91.68
2022-12-01T09:26:25.902Z,91.40
2022-12-01T09:28:55.170Z,89.32
2022-12-01T09:31:25.582Z,89.59
2022-12-01T09:33:56.828Z,86.20
2022-12-01T09:36:24.513Z,83.82
2022-12-01T09:38:51.488Z,82.43
2022-12-01T09:41:24.012Z,83.04
2022-12-01T09:44:34.003Z,82.88
2022-12-01T09:47:19.184Z,80.34
2022-12-01T09:50:00.231Z,81.86
2022-12-01T09:52:32.113Z,79.65
2022-12-01T09:55:00.523Z,80.54
2022-12-01T09:57:36.652Z,81.26
2022-12-01T10:00:25.411Z,79.75
2022-12-01T10:02:59.081Z,81.12
2022-12-01T10:05:34.232Z,78.52
2022-12-01T10:08:05.471Z,78.13
2022-12-01T10:10:43.331Z,78.19
2022-12-01T10:13:18.209Z,76.91
2022-12-01T10:15:47.862Z,74.96
2022-12-01T10:18:36.498Z,76.16
2022-12-01T10:21:21.784Z,73.58
2022-12-01T10:24:00.933Z,72.79
2022-12-01T10:26:51.550Z,73.78
2022-12-01T10:29:48.467Z,71.59
2022-12-01T10:32:38.820Z,70.00
2022-12-01T10:35:06.080Z,70.28
2022-12-01T10:37:32.978Z,69.35
2022-12-01T10:40:00.122Z,68.85
2022-12-01T10:42:46.975Z,68.90
2022-12-01T10:45:16.637Z,69.04
2022-12-01T10:48:15.824Z,67.26
2022-12-01T10:50:45.424Z,68.46
2022-12-01T10:53:24.741Z,67.91
2022-12-01T10:56:10.872Z,66.46
2022-12-01T10:58:46.390Z,63.94
2022-12-01T11:01:37.025Z,65.08
2022-12-01T11:04:46.493Z,64.07
2022-12-01T11:07:25.772Z,62.48
2022-12-01T11:10:04.449Z,62.89
2022-12-01T11:12:32.065Z,63.19
2022-12-01T11:14:59.399Z,62.57
2022-12-01T11:17:42.571Z,63.97
2022-12-01T11:20:30.657Z,65.19
2022-12-01T11:23:18.236Z,65.33
2022-12-01T11:26:02.229Z,65.48
2022-12-01T11:28:33.570Z,65.56
2022-12-01T11:31:11.354Z,65.24
2022-12-01T11:33:52.219Z,65.45
2022-12-01T11:36:45.493Z,68.38
2022-12-01T11:39:34.170Z,70.65
2022-12-01T11:42:07.225Z,70.61
2022-12-01T11:44:50.793Z,71.11
2022-12-01T11:47:24.105Z,71.36
2022-12-01T11:50:00.944Z,70.65
2022-12-01T11:52:34.726Z,70.23
2022-12-01T11:55:20.427Z,71.59
2022-12-01T11:57:51.120Z,71.67
2022-12-01T12:00:22.676Z,71.98
2022-12-01T12:02:55.253Z,70.96
2022-12-01T12:05:49.179Z,69.66
2022-12-01T12:08:22.942Z,70.70
2022-12-01T12:10:54.694Z,71.38
2022-12-01T12:13:42.386Z,71.08
2022-12-01T12:16:47.932Z,71.71
2022-12-01T12:19:14.708Z,72.97
2022-12-01T12:21:53.570Z,71.45
2022-12-01T12:24:32.402Z,72.13
2022-12-01T12:27:32.895Z,73.23
2022-12-01T12:30:22.250Z,73.32
2022-12-01T12:33:27.239Z,72.69
2022-12-01T12:35:56.901Z,71.62
2022-12-01T12:39:12.140Z,71.83
2022-12-01T12:41:55.118Z,72.98
2022-12-01T12:44:35.458Z,72.50
2022-12-01T12:47:21.874Z,73.57
2022-12-01T12:50:26.475Z,71.87
2022-12-01T12:52:59.497Z,71.36
2022-12-01T12:55:32.486Z,71.89
2022-12-01T12:58:11.412Z,73.68
2022-12-01T13:00:43.251Z,72.21
2022-12-01T13:03:19.420Z,72.71
2022-12-01T13:06:08.965Z,72.54
2022-12-01T13:08:45.943Z,73.29
2022-12-01T13:11:18.061Z,71.57
2022-12-01T13:14:06.570Z,70.20
2022-12-01T13:16:45.266Z,71.44
2022-12-01T13:19:28.966Z,70.47
2022-12-01T13:21:57.390Z,71.13
2022-12-01T13:24:29.111Z,70.69
2022-12-01T13:27:21.105Z,70.84
2022-12-01T13:29:51.104Z,70.59
2022-12-01T13:32:32.538Z,71.09
2022-12-01T13:35:01.991Z,70.47
2022-12-01T13:37:32.836Z,69.78
2022-12-01T13:40:20.368Z,70.07
2022-12-01T13:43:05.532Z,70.94
2022-12-01T13:45:37.435Z,71.06
2022-12-01T13:48:25.198Z,71.33
2022-12-01T13:50:57.912Z,71.95
2022-12-01T13:53:29.874Z,72.21
2022-12-01T13:56:03.847Z,72.42
2022-12-01T13:58:33.660Z,72.06
2022-12-01T14:01:23.322Z,72.50
2022-12-01T14:03:56.993Z,72.61
2022-12-01T14:06:36.203Z,77.79
2022-12-01T14:09:41.468Z,76.88
2022-12-01T14:12:15.943Z,76.09
2022-12-01T14:15:03.065Z,74.28
2022-12-01T14:17:32.756Z,74.69
2022-12-01T14:20:21.614Z,75.33
2022-12-01T14:23:03.994Z,75.67
2022-12-01T14:25:31.755Z,75.00
2022-12-01T14:28:01.486Z,76.89
2022-12-01T14:30:46.563Z,78.22
2022-12-01T14:33:51.223Z,77.74
2022-12-01T14:36:24.324Z,78.21
2022-12-01T14:38:54.869Z,77.84
2022-12-01T14:41:25.633Z,78.23
2022-12-01T14:44:03.629Z,77.41
2022-12-01T14:46:56.510Z,78.70
2022-12-01T14:49:32.855Z,78.44
2022-12-01T14:52:06.781Z,79.27
2022-12-01T14:54:42.831Z,80.11
2022-12-01T14:57:16.710Z,80.65
2022-12-01T14:59:44.733Z,82.04
2022-12-01T15:02:12.583Z,81.28
2022-12-01T15:05:15.754Z,81.82
2022-12-01T15:07:45.886Z,82.05
2022-12-01T15:10:22.696Z,81.56
2022-12-01T15:12:51.781Z,82.06
2022-12-01T15:15:24.163Z,83.46
2022-12-01T15:17:53.160Z,83.43
2022-12-01T15:20:28.631Z,83.96
2022-12-01T15:22:56.836Z,82.68
2022-12-01T15:25:25.220Z,84.42
2022-12-01T15:28:13.035Z,84.03
2022-12-01T15:30:41.853Z,84.44
2022-12-01T15:33:26.940Z,85.70
2022-12-01T15:35:55.701Z,86.50
2022-12-01T15:38:27.259Z,86.91
2022-12-01T15:43:46.446Z,85.38
2022-12-01T15:46:19.334Z,86.87
2022-12-01T15:48:46.507Z,88.20
2022-12-01T15:51:27.727Z,89.08
2022-12-01T15:53:59.765Z,89.29
2022-12-01T15:56:31.270Z,91.22
2022-12-01T15:59:12.723Z,89.68
2022-12-01T16:01:42.132Z,90.43
2022-12-01T16:04:29.450Z,90.05
2022-12-01T16:07:01.197Z,90.66
2022-12-01T16:09:34.258Z,92.92
2022-12-01T16:12:19.066Z,93.00
2022-12-01T16:15:01.266Z,93.58
2022-12-01T16:17:40.758Z,94.09
2022-12-01T16:20:19.114Z,94.56
2022-12-01T16:22:48.977Z,94.61
2022-12-01T16:25:29.661Z,94.87
2022-12-01T16:27:57.690Z,95.40
2022-12-01T16:30:30.269Z,97.07
2022-12-01T16:33:18.702Z,97.31
2022-12-01T16:35:46.198Z,98.52
2022-12-01T16:38:22.379Z,99.26
2022-12-01T16:41:16.565Z,98.63
2022-12-01T16:43:54.515Z,100.00
2022-12-01T16:46:30.750Z,100.00
2022-12-01T16:48:57.586Z,100.00
2022-12-01T16:51:30.106Z,100.00
2022-12-01T16:54:10.166Z,100.00
2022-12-01T16:56:37.169Z,100.00
2022-12-01T16:59:04.979Z,100.00
2022-12-01T17:01:32.105Z,100.00
2022-12-01T17:04:07.199Z,100.00
2022-12-01T17:06:35.741Z,100.00
2022-12-01T17:09:02.498Z,100.00
2022-12-01T17:11:29.578Z,100.00
2022-12-01T17:13:56.322Z,100.00
2022-12-01T17:16:23.453Z,100.00
2022-12-01T17:18:50.334Z,100.00
2022-12-01T17:21:17.417Z,100.00
2022-12-01T17:23:44.221Z,100.00
2022-12-01T17:26:14.399Z,100.00
2022-12-01T17:28:41.353Z,100.00
2022-12-01T17:31:09.282Z,100.00
2022-12-01T17:33:36.539Z,100.00
2022-12-01T17:36:10.091Z,100.00
2022-12-01T17:38:41.610Z,100.00
2022-12-01T17:41:11.460Z,100.00
2022-12-01T17:43:39.302Z,100.00
2022-12-01T17:46:08.825Z,100.00
2022-12-01T17:48:40.723Z,100.00
2022-12-01T17:51:08.987Z,100.00
2022-12-01T17:53:36.511Z,100.00
2022-12-01T17:56:09.962Z,100.00
2022-12-01T17:58:40.301Z,100.00
2022-12-01T18:01:15.165Z,100.00
2022-12-01T18:03:42.368Z,100.00
2022-12-01T18:06:12.191Z,100.00
2022-12-01T18:08:39.835Z,100.00
2022-12-01T18:11:10.075Z,100.00
2022-12-01T18:13:41.926Z,100.00
2022-12-01T18:16:12.094Z,100.00
2022-12-01T18:18:39.406Z,100.00
2022-12-01T18:21:14.745Z,100.00
2022-12-01T18:23:41.796Z,100.00
2022-12-01T18:26:15.983Z,100.00
2022-12-01T18:28:43.901Z,100.00
2022-12-01T18:31:13.946Z,100.00
2022-12-01T18:33:42.788Z,100.00
2022-12-01T18:36:13.352Z,100.00
2022-12-01T18:38:40.692Z,100.00
2022-12-01T18:41:10.266Z,100.00
2022-12-01T18:43:37.341Z,100.00
2022-12-01T18:46:07.635Z,100.00
2022-12-01T18:48:35.165Z,100.00
2022-12-01T18:51:04.838Z,100.00
2022-12-01T18:53:32.546Z,100.00
2022-12-01T18:56:04.158Z,100.00
2022-12-01T18:58:32.068Z,100.00
2022-12-01T19:01:00.173Z,100.00
2022-12-01T19:03:31.320Z,100.00
2022-12-01T19:05:59.347Z,100.00
2022-12-01T19:08:26.123Z,100.00
2022-12-01T19:11:00.613Z,100.00
2022-12-01T19:13:28.222Z,100.00
2022-12-01T19:16:07.179Z,100.00
2022-12-01T19:18:36.136Z,100.00
2022-12-01T19:21:04.845Z,100.00
2022-12-01T19:23:32.047Z,100.00
2022-12-01T19:26:05.082Z,100.00
2022-12-01T19:28:35.720Z,100.00
2022-12-01T19:31:11.271Z,100.00
2022-12-01T19:33:38.729Z,100.00
2022-12-01T19:36:12.076Z,100.00
2022-12-01T19:38:39.157Z,100.00
2022-12-01T19:41:08.116Z,100.00
2022-12-01T19:43:35.971Z,100.00
2022-12-01T19:46:17.121Z,100.00
2022-12-01T19:48:44.322Z,100.00
2022-12-01T19:51:19.320Z,100.00
2022-12-01T19:53:46.892Z,100.00
2022-12-01T19:56:14.209Z,100.00
2022-12-01T19:58:41.010Z,100.00
2022-12-01T20:01:14.502Z,100.00
2022-12-01T20:03:42.244Z,100.00
2022-12-01T20:06:20.167Z,100.00
2022-12-01T20:08:47.035Z,100.00
2022-12-01T20:11:15.034Z,100.00
2022-12-01T20:13:43.780Z,100.00
2022-12-01T20:16:17.329Z,100.00
2022-12-01T20:18:44.936Z,100.00
2022-12-01T20:21:19.415Z,100.00
2022-12-01T20:23:51.917Z,100.00
2022-12-01T20:26:19.915Z,100.00
2022-12-01T20:28:49.797Z,100.00
2022-12-01T20:31:24.060Z,100.00
2022-12-01T20:33:52.718Z,100.00
2022-12-01T20:36:20.278Z,100.00
2022-12-01T20:38:47.402Z,100.00
2022-12-01T20:41:14.566Z,100.00
2022-12-01T20:43:41.392Z,100.00
2022-12-01T20:46:10.733Z,100.00
2022-12-01T20:48:39.037Z,100.00
2022-12-01T20:51:08.018Z,100.00
2022-12-01T20:53:35.982Z,100.00
2022-12-01T20:56:08.862Z,100.00
2022-12-01T20:58:38.002Z,100.00
2022-12-01T21:01:17.066Z,100.00
2022-12-01T21:03:45.521Z,100.00
2022-12-01T21:06:14.762Z,100.00
2022-12-01T21:08:45.014Z,100.00
2022-12-01T21:11:51.693Z,100.00
2022-12-01T21:14:27.920Z,100.00
2022-12-01T21:16:59.018Z,100.00
2022-12-01T21:19:37.182Z,100.00
2022-12-01T21:22:11.752Z,100.00
2022-12-01T21:24:43.758Z,100.00
2022-12-01T21:27:16.219Z,100.00
2022-12-01T21:29:48.557Z,100.00
2022-12-01T21:32:18.650Z,100.00
2022-12-01T21:34:47.273Z,100.00
2022-12-01T21:37:24.278Z,100.00
2022-12-01T21:39:53.209Z,100.00
2022-12-01T21:42:23.180Z,100.00
2022-12-01T21:44:50.736Z,100.00
2022-12-01T21:47:21.827Z,100.00
2022-12-01T21:49:52.307Z,100.00
2022-12-01T21:52:25.161Z,100.00
2022-12-01T21:54:52.079Z,100.00
2022-12-01T21:57:31.451Z,100.00
2022-12-01T22:00:23.071Z,100.00
2022-12-01T22:02:52.601Z,100.00
2022-12-01T22:05:42.243Z,100.00
2022-12-01T22:08:14.087Z,100.00
2022-12-01T22:10:56.255Z,100.00
2022-12-01T22:13:33.105Z,100.00
2022-12-01T22:16:00.248Z,100.00
2022-12-01T22:18:35.834Z,100.00
2022-12-01T22:21:22.493Z,100.00
2022-12-01T22:24:08.065Z,100.00
2022-12-01T22:26:43.064Z,100.00
2022-12-01T22:29:34.158Z,100.00
2022-12-01T22:32:12.887Z,100.00
2022-12-01T22:34:43.923Z,100.00
2022-12-01T22:37:40.558Z,100.00
2022-12-01T22:40:26.326Z,100.00
2022-12-01T22:42:53.097Z,100.00
2022-12-01T22:45:24.451Z,100.00
2022-12-01T22:47:54.692Z,100.00
2022-12-01T22:50:28.503Z,100.00
2022-12-01T22:53:16.995Z,100.00
2022-12-01T22:55:44.256Z,100.00
2022-12-01T22:58:34.015Z,100.00
2022-12-01T23:01:16.937Z,100.00
2022-12-01T23:03:43.911Z,100.00
2022-12-01T23:06:53.951Z,100.00
2022-12-01T23:09:22.599Z,100.00
2022-12-01T23:11:56.441Z,100.00
2022-12-01T23:14:23.961Z,100.00
2022-12-01T23:17:05.724Z,100.00
2022-12-01T23:19:34.483Z,100.00
2022-12-01T23:22:02.074Z,100.00
2022-12-01T23:24:33.680Z,100.00
2022-12-01T23:27:04.867Z,100.00
2022-12-01T23:29:32.488Z,100.00
2022-12-01T23:31:59.671Z,100.00
2022-12-01T23:34:26.494Z,100.00
2022-12-01T23:36:53.652Z,100.00
2022-12-01T23:39:31.879Z,100.00
2022-12-01T23:41:59.521Z,100.00
2022-12-01T23:44:29.265Z,100.00
2022-12-01T23:46:58.454Z,100.00
2022-12-01T23:49:31.970Z,100.00
2022-12-01T23:52:01.015Z,100.00
2022-12-01T23:54:31.977Z,100.00
2022-12-01T23:57:02.873Z,100.00
2022-12-01T23:59:31.859Z,100.00
